Aviation Digital Data Service (ADDS)

Output produced by TAFs form (1700 UTC 17 October 2017)
found at http://aviationweather.gov/adds/tafs/
 
KFMN 171126Z 1712/1812 09007KT P6SM FEW250 
     FM171700 VRB05KT P6SM FEW250 
     FM172000 28008KT P6SM FEW250 
     FM180300 06006KT P6SM SCT250